Terminal Aerodrome Forecast
Issued by NWS Green Bay, WI

Home | Current Version | Previous Version | Text Only | Print | Product List | Glossary On
Versions: 1 2 3 4 5 6 7 8 9 10 11 12 13 14 15 16 17 18 19 20 21 22 23 24 25 26 27 28 29 30 31 32 33 34 35 36 37 38 39
000
FTUS43 KGRB 232333
TAFGRB
TAF
KGRB 232333Z 2400/2424 20005KT P6SM SKC
      TEMPO 2404/2406 BKN080
     FM240600 21010G17KT P6SM BKN100 WS015/24045KT
     FM241500 21013G23KT P6SM BKN120
     FM242200 24011G20KT P6SM VCSH BKN080=

USA.gov is the U.S. government's official web portal to all federal, state and local government web resources and services.